createdAt,value
2023-05-06T00:00:43.598Z,32.45
2023-05-06T00:01:43.649Z,32.42
2023-05-06T00:02:43.761Z,32.47
2023-05-06T00:03:43.998Z,32.46
2023-05-06T00:04:43.933Z,32.42
2023-05-06T00:05:43.888Z,32.50
2023-05-06T00:06:43.963Z,32.47
2023-05-06T00:07:44.019Z,32.50
2023-05-06T00:08:44.084Z,32.59
2023-05-06T00:09:44.162Z,32.55
2023-05-06T00:10:44.220Z,32.54
2023-05-06T00:11:44.272Z,32.61
2023-05-06T00:12:44.373Z,32.56
2023-05-06T00:13:44.414Z,32.57
2023-05-06T00:14:44.443Z,32.51
2023-05-06T00:15:44.465Z,32.53
2023-05-06T00:16:44.519Z,32.55
2023-05-06T00:17:44.540Z,32.55
2023-05-06T00:18:44.525Z,32.60
2023-05-06T00:19:44.567Z,32.62
2023-05-06T00:20:44.585Z,32.59
2023-05-06T00:21:44.663Z,32.63
2023-05-06T00:22:44.729Z,32.55
2023-05-06T00:23:44.800Z,32.59
2023-05-06T00:24:44.859Z,32.46
2023-05-06T00:25:44.888Z,32.54
2023-05-06T00:26:44.957Z,32.54
2023-05-06T00:27:45.050Z,32.54
2023-05-06T00:28:45.101Z,32.51
2023-05-06T00:29:45.154Z,32.56
2023-05-06T00:30:45.220Z,32.58
2023-05-06T00:31:45.505Z,32.59
2023-05-06T00:32:45.370Z,32.56
2023-05-06T00:33:45.410Z,32.48
2023-05-06T00:34:45.460Z,32.51
2023-05-06T00:35:45.528Z,32.51
2023-05-06T00:36:45.597Z,32.47
2023-05-06T00:37:45.675Z,32.52
2023-05-06T00:38:45.731Z,32.53
2023-05-06T00:39:45.798Z,32.52
2023-05-06T00:40:45.844Z,32.56
2023-05-06T00:41:45.903Z,32.48
2023-05-06T00:42:45.962Z,32.52
2023-05-06T00:43:45.998Z,32.52
2023-05-06T00:44:46.055Z,32.51
2023-05-06T00:45:46.132Z,32.51
2023-05-06T00:46:46.163Z,32.53
2023-05-06T00:47:46.355Z,32.48
2023-05-06T00:48:46.270Z,32.46
2023-05-06T00:49:46.311Z,32.53
2023-05-06T00:50:46.367Z,32.55
2023-05-06T00:51:46.423Z,32.47
2023-05-06T00:52:46.493Z,32.51
2023-05-06T00:53:46.538Z,32.44
2023-05-06T00:54:46.587Z,32.42
2023-05-06T00:55:46.635Z,32.45
2023-05-06T00:56:46.715Z,32.42
2023-05-06T00:57:46.771Z,32.41
2023-05-06T00:58:46.825Z,32.38
2023-05-06T00:59:46.878Z,32.33
2023-05-06T01:00:46.974Z,32.41
2023-05-06T01:01:46.995Z,32.37
2023-05-06T01:02:48.016Z,32.36
2023-05-06T01:03:47.425Z,32.37
2023-05-06T01:04:47.198Z,32.38
2023-05-06T01:05:47.226Z,32.38
2023-05-06T01:06:47.298Z,32.34
2023-05-06T01:07:47.356Z,32.30
2023-05-06T01:08:47.381Z,32.25
2023-05-06T01:09:47.453Z,32.22
2023-05-06T01:10:47.473Z,32.26
2023-05-06T01:11:47.547Z,32.24
2023-05-06T01:12:47.616Z,32.21
2023-05-06T01:13:47.603Z,32.18
2023-05-06T01:14:47.650Z,32.19
2023-05-06T01:15:47.707Z,32.12
2023-05-06T01:16:47.778Z,32.09
2023-05-06T01:17:47.817Z,32.03
2023-05-06T01:18:47.823Z,32.03
2023-05-06T01:19:47.913Z,32.03
2023-05-06T01:20:47.883Z,31.99
2023-05-06T01:21:47.911Z,32.02
2023-05-06T01:22:47.936Z,31.98
2023-05-06T01:23:47.963Z,31.97
2023-05-06T01:24:47.962Z,31.90
2023-05-06T01:25:47.967Z,31.88
2023-05-06T01:26:47.997Z,31.88
2023-05-06T01:27:48.004Z,31.86
2023-05-06T01:28:48.029Z,31.83
2023-05-06T01:29:48.083Z,31.82
2023-05-06T01:30:48.168Z,31.76
2023-05-06T01:31:48.149Z,31.75
2023-05-06T01:32:48.182Z,31.75
2023-05-06T01:33:48.162Z,31.71
2023-05-06T01:34:48.164Z,31.72
2023-05-06T01:35:48.235Z,31.65
2023-05-06T01:36:48.196Z,31.68
2023-05-06T01:37:48.215Z,31.66
2023-05-06T01:38:48.255Z,31.70
2023-05-06T01:39:48.281Z,31.67
2023-05-06T01:40:48.285Z,31.65
2023-05-06T01:41:48.310Z,31.66
2023-05-06T01:42:48.351Z,31.67
2023-05-06T01:43:48.374Z,31.70
2023-05-06T01:44:48.438Z,31.61
2023-05-06T01:45:48.412Z,31.61
2023-05-06T01:46:48.483Z,31.66
2023-05-06T01:47:48.465Z,31.63
2023-05-06T01:48:48.478Z,31.67
2023-05-06T01:49:48.493Z,31.63
2023-05-06T01:50:48.525Z,31.60
2023-05-06T01:51:48.506Z,31.66
2023-05-06T01:52:48.522Z,31.55
2023-05-06T01:53:48.560Z,31.60
2023-05-06T01:54:48.576Z,31.57
2023-05-06T01:55:48.587Z,31.57
2023-05-06T01:56:48.606Z,31.57
2023-05-06T01:57:48.627Z,31.57
2023-05-06T01:58:48.624Z,31.60
2023-05-06T01:59:48.633Z,31.59
2023-05-06T02:00:48.651Z,31.57
2023-05-06T02:01:48.755Z,31.55
2023-05-06T02:02:48.830Z,31.53
2023-05-06T02:03:48.787Z,31.52
2023-05-06T02:04:48.669Z,31.57
2023-05-06T02:05:48.682Z,31.52
2023-05-06T02:06:48.688Z,31.53
2023-05-06T02:07:48.753Z,31.53
2023-05-06T02:08:48.711Z,31.56
2023-05-06T02:09:48.733Z,31.45
2023-05-06T02:10:48.718Z,31.46
2023-05-06T02:11:48.754Z,31.48
2023-05-06T02:12:48.740Z,31.48
2023-05-06T02:13:48.741Z,31.46
2023-05-06T02:14:48.714Z,31.46
2023-05-06T02:15:48.757Z,31.43
2023-05-06T02:16:48.720Z,31.41
2023-05-06T02:17:48.745Z,31.42
2023-05-06T02:18:48.702Z,31.38
2023-05-06T02:19:48.738Z,31.37
2023-05-06T02:20:48.730Z,31.36
2023-05-06T02:21:48.721Z,31.33
2023-05-06T02:22:48.720Z,31.33
2023-05-06T02:23:48.706Z,31.38
2023-05-06T02:24:48.699Z,31.34
2023-05-06T02:25:48.713Z,31.33
2023-05-06T02:26:48.724Z,31.29
2023-05-06T02:27:48.703Z,31.33
2023-05-06T02:28:48.712Z,31.33
2023-05-06T02:29:48.717Z,31.37
2023-05-06T02:30:48.727Z,31.34
2023-05-06T02:31:48.792Z,31.34
2023-05-06T02:32:48.730Z,31.30
2023-05-06T02:33:48.695Z,31.34
2023-05-06T02:34:48.696Z,31.37
2023-05-06T02:35:48.687Z,31.37
2023-05-06T02:36:48.697Z,31.38
2023-05-06T02:37:48.750Z,31.37
2023-05-06T02:38:48.805Z,31.37
2023-05-06T02:39:48.907Z,31.38
2023-05-06T02:40:48.869Z,31.41
2023-05-06T02:41:48.861Z,31.34
2023-05-06T02:42:48.916Z,31.35
2023-05-06T02:43:48.893Z,31.43
2023-05-06T02:44:48.873Z,31.44
2023-05-06T02:45:48.928Z,31.38
2023-05-06T02:46:48.877Z,31.40
2023-05-06T02:47:48.900Z,31.39
2023-05-06T02:48:48.859Z,31.39
2023-05-06T02:49:48.863Z,31.39
2023-05-06T02:50:48.860Z,31.31
2023-05-06T02:51:48.846Z,31.43
2023-05-06T02:52:48.867Z,31.34
2023-05-06T02:53:48.860Z,31.37
2023-05-06T02:54:48.846Z,31.36
2023-05-06T02:55:48.901Z,31.35
2023-05-06T02:56:48.837Z,31.35
2023-05-06T02:57:48.836Z,31.38
2023-05-06T02:58:48.855Z,31.32
2023-05-06T02:59:48.833Z,31.34
2023-05-06T03:00:48.893Z,31.36
2023-05-06T03:01:48.846Z,31.35
2023-05-06T03:02:48.941Z,31.36
2023-05-06T03:03:48.873Z,31.40
2023-05-06T03:04:48.825Z,31.39
2023-05-06T03:05:48.835Z,31.40
2023-05-06T03:06:48.844Z,31.39
2023-05-06T03:07:48.835Z,31.42
2023-05-06T03:08:48.839Z,31.43
2023-05-06T03:09:48.837Z,31.39
2023-05-06T03:10:48.850Z,31.39
2023-05-06T03:11:48.854Z,31.43
2023-05-06T03:12:48.865Z,31.35
2023-05-06T03:13:48.863Z,31.35
2023-05-06T03:14:48.870Z,31.40
2023-05-06T03:15:48.866Z,31.39
2023-05-06T03:16:48.893Z,31.36
2023-05-06T03:17:48.916Z,31.36
2023-05-06T03:18:48.959Z,31.42
2023-05-06T03:19:49.009Z,31.43
2023-05-06T03:20:49.077Z,31.39
2023-05-06T03:21:49.165Z,31.33
2023-05-06T03:22:49.134Z,31.34
2023-05-06T03:23:49.128Z,31.40
2023-05-06T03:24:49.139Z,31.38
2023-05-06T03:25:49.142Z,31.44
2023-05-06T03:26:49.310Z,31.43
2023-05-06T03:27:49.144Z,31.44
2023-05-06T03:28:49.138Z,31.43
2023-05-06T03:29:49.148Z,31.47
2023-05-06T03:30:49.144Z,31.49
2023-05-06T03:31:49.147Z,31.52
2023-05-06T03:34:07.687Z,31.63
2023-05-06T03:35:07.756Z,31.57
2023-05-06T03:36:07.645Z,31.56
2023-05-06T03:37:07.680Z,31.52
2023-05-06T03:38:07.647Z,31.54
2023-05-06T03:39:07.639Z,31.45
2023-05-06T03:40:07.630Z,31.54
2023-05-06T03:41:07.623Z,31.57
2023-05-06T03:42:09.425Z,31.45
2023-05-06T03:43:07.674Z,31.56
2023-05-06T03:44:07.609Z,31.57
2023-05-06T03:45:07.822Z,31.56
2023-05-06T03:46:07.615Z,31.50
2023-05-06T03:47:07.563Z,31.54
2023-05-06T03:48:07.669Z,31.48
2023-05-06T03:49:07.583Z,31.48
2023-05-06T03:50:07.581Z,31.49
2023-05-06T03:51:07.642Z,31.54
2023-05-06T03:52:07.649Z,31.50
2023-05-06T03:53:07.688Z,31.50
2023-05-06T03:54:07.735Z,31.49
2023-05-06T03:55:07.946Z,31.59
2023-05-06T03:56:07.837Z,31.49
2023-05-06T03:57:07.874Z,31.61
2023-05-06T03:58:07.927Z,31.53
2023-05-06T03:59:07.995Z,31.54
2023-05-06T04:00:07.997Z,31.54
2023-05-06T04:01:08.007Z,31.61
2023-05-06T04:02:08.072Z,31.60
2023-05-06T04:03:08.089Z,31.61
2023-05-06T04:04:08.134Z,31.61
2023-05-06T04:05:08.192Z,31.55
2023-05-06T04:06:08.112Z,31.61
2023-05-06T04:07:08.125Z,31.54
2023-05-06T04:08:08.141Z,31.53
2023-05-06T04:09:08.153Z,31.53
2023-05-06T04:10:08.169Z,31.57
2023-05-06T04:11:08.166Z,31.58
2023-05-06T04:12:08.200Z,31.59
2023-05-06T04:13:08.250Z,31.53
2023-05-06T04:14:08.261Z,31.59
2023-05-06T04:15:08.480Z,31.61
2023-05-06T04:16:08.387Z,31.65
2023-05-06T04:17:08.344Z,31.62
2023-05-06T04:18:08.446Z,31.66
2023-05-06T04:19:08.418Z,31.70
2023-05-06T04:20:08.427Z,31.62
2023-05-06T04:21:08.476Z,31.59
2023-05-06T04:22:08.485Z,31.62
2023-05-06T04:23:08.503Z,31.66
2023-05-06T04:24:08.534Z,31.63
2023-05-06T04:25:08.818Z,31.73
2023-05-06T04:26:08.563Z,31.70
2023-05-06T04:27:08.567Z,31.70
2023-05-06T04:28:08.575Z,31.68
2023-05-06T04:29:08.611Z,31.63
2023-05-06T04:30:08.661Z,31.70
2023-05-06T04:31:08.902Z,31.70
2023-05-06T04:32:08.697Z,31.75
2023-05-06T04:33:08.712Z,31.69
2023-05-06T04:34:08.675Z,31.78
2023-05-06T04:35:08.912Z,31.67
2023-05-06T04:36:08.702Z,31.71
2023-05-06T04:37:08.724Z,31.77
2023-05-06T04:38:08.761Z,31.74
2023-05-06T04:39:08.850Z,31.74
2023-05-06T04:40:08.753Z,31.71
2023-05-06T04:41:08.762Z,31.81
2023-05-06T04:42:08.794Z,31.74
2023-05-06T04:43:08.794Z,31.78
2023-05-06T04:44:08.776Z,31.85
2023-05-06T04:45:08.977Z,31.81
2023-05-06T04:46:08.841Z,31.87
2023-05-06T04:47:09.046Z,31.82
2023-05-06T04:48:08.816Z,31.81
2023-05-06T04:49:09.253Z,31.89
2023-05-06T04:50:08.846Z,31.84
2023-05-06T04:51:08.836Z,31.81
2023-05-06T04:52:08.816Z,31.91
2023-05-06T04:53:08.821Z,31.79
2023-05-06T04:54:08.806Z,31.85
2023-05-06T04:55:09.192Z,31.86
2023-05-06T04:56:08.800Z,31.92
2023-05-06T04:57:08.822Z,31.88
2023-05-06T04:58:08.802Z,31.82
2023-05-06T04:59:08.805Z,31.90
2023-05-06T05:00:09.139Z,31.98
2023-05-06T05:01:08.865Z,31.87
2023-05-06T05:02:08.861Z,31.90
2023-05-06T05:03:08.966Z,31.88
2023-05-06T05:04:08.802Z,31.99
2023-05-06T05:05:09.056Z,31.85
2023-05-06T05:06:08.801Z,31.98
2023-05-06T05:07:08.808Z,31.92
2023-05-06T05:08:08.793Z,31.95
2023-05-06T05:09:08.801Z,31.92
2023-05-06T05:10:08.837Z,32.03
2023-05-06T05:11:08.824Z,31.99
2023-05-06T05:12:08.832Z,31.98
2023-05-06T05:13:08.957Z,32.05
2023-05-06T05:14:08.920Z,32.00
2023-05-06T05:15:09.245Z,32.11
2023-05-06T05:16:08.910Z,32.07
2023-05-06T05:17:09.043Z,32.05
2023-05-06T05:18:09.075Z,32.08
2023-05-06T05:20:09.003Z,32.15
2023-05-06T05:21:09.006Z,32.14
2023-05-06T05:22:09.057Z,32.11
2023-05-06T05:23:09.071Z,32.13
2023-05-06T05:24:09.075Z,32.26
2023-05-06T05:25:09.204Z,32.23
2023-05-06T05:26:09.151Z,32.29
2023-05-06T05:27:09.177Z,32.29
2023-05-06T05:28:09.200Z,32.32
2023-05-06T05:29:09.201Z,32.26
2023-05-06T05:30:09.216Z,32.26
2023-05-06T05:31:10.486Z,32.35
2023-05-06T05:32:09.278Z,32.40
2023-05-06T05:33:09.387Z,32.35
2023-05-06T05:34:09.322Z,32.33
2023-05-06T05:35:09.615Z,32.33
2023-05-06T05:36:09.403Z,32.28
2023-05-06T05:37:09.458Z,32.29
2023-05-06T05:38:09.492Z,32.35
2023-05-06T05:39:09.552Z,32.40
2023-05-06T05:40:09.584Z,32.49
2023-05-06T05:41:09.625Z,32.32
2023-05-06T05:42:09.628Z,32.42
2023-05-06T05:43:09.680Z,32.48
2023-05-06T05:44:09.706Z,32.40
2023-05-06T05:45:09.839Z,32.37
2023-05-06T05:46:09.807Z,32.48
2023-05-06T05:47:09.834Z,32.38
2023-05-06T05:48:09.881Z,32.38
2023-05-06T05:49:09.900Z,32.46
2023-05-06T05:50:09.945Z,32.51
2023-05-06T05:51:09.956Z,32.48
2023-05-06T05:52:09.994Z,32.43
2023-05-06T05:53:09.989Z,32.40
2023-05-06T05:54:10.011Z,32.44
2023-05-06T05:55:10.171Z,32.46
2023-05-06T05:56:10.116Z,32.45
2023-05-06T05:57:10.192Z,32.51
2023-05-06T05:58:10.224Z,32.57
2023-05-06T05:59:10.273Z,32.53
2023-05-06T06:00:11.594Z,32.58
2023-05-06T06:01:10.332Z,32.59
2023-05-06T06:02:10.332Z,32.62
2023-05-06T06:03:10.398Z,32.62
2023-05-06T06:04:10.469Z,32.64
2023-05-06T06:05:10.513Z,32.65
2023-05-06T06:06:10.310Z,32.69
2023-05-06T06:07:10.305Z,32.60
2023-05-06T06:08:10.288Z,32.67
2023-05-06T06:09:10.301Z,32.70
2023-05-06T06:10:10.289Z,32.75
2023-05-06T06:11:10.270Z,32.76
2023-05-06T06:12:10.309Z,32.68
2023-05-06T06:13:10.331Z,32.81
2023-05-06T06:14:10.268Z,32.83
2023-05-06T06:15:10.396Z,32.78
2023-05-06T06:16:10.303Z,32.75
2023-05-06T06:17:10.245Z,32.79
2023-05-06T06:18:10.253Z,32.88
2023-05-06T06:19:10.246Z,32.89
2023-05-06T06:20:10.233Z,32.89
2023-05-06T06:21:10.229Z,32.83
2023-05-06T06:22:10.218Z,32.92
2023-05-06T06:23:10.200Z,32.95
2023-05-06T06:24:10.193Z,32.91
2023-05-06T06:25:10.513Z,32.95
2023-05-06T06:26:12.204Z,32.94
2023-05-06T06:27:10.191Z,32.87
2023-05-06T06:28:10.168Z,33.03
2023-05-06T06:29:10.166Z,32.96
2023-05-06T06:30:10.177Z,33.00
2023-05-06T06:31:10.329Z,32.96
2023-05-06T06:32:10.388Z,32.95
2023-05-06T06:33:10.380Z,32.93
2023-05-06T06:34:10.434Z,33.00
2023-05-06T06:35:10.629Z,32.98
2023-05-06T06:36:10.548Z,33.07
2023-05-06T06:37:10.609Z,33.08
2023-05-06T06:38:10.668Z,33.02
2023-05-06T06:39:10.748Z,33.05
2023-05-06T06:40:10.809Z,33.00
2023-05-06T06:41:10.851Z,33.15
2023-05-06T06:42:10.929Z,33.19
2023-05-06T06:43:10.958Z,33.18
2023-05-06T06:44:11.019Z,33.11
2023-05-06T06:45:11.238Z,33.17
2023-05-06T06:46:11.172Z,33.20
2023-05-06T06:47:11.213Z,33.17
2023-05-06T06:48:11.369Z,33.12
2023-05-06T06:49:11.361Z,33.12
2023-05-06T06:50:11.397Z,33.08
2023-05-06T06:51:11.466Z,33.08
2023-05-06T06:52:11.521Z,32.96
2023-05-06T06:53:11.599Z,33.07
2023-05-06T06:54:11.645Z,32.95
2023-05-06T06:55:11.842Z,32.87
2023-05-06T06:56:11.775Z,32.98
2023-05-06T06:57:11.855Z,32.94
2023-05-06T06:58:11.904Z,32.90
2023-05-06T06:59:11.965Z,32.94
2023-05-06T07:00:12.029Z,32.83
2023-05-06T07:01:12.163Z,32.95
2023-05-06T07:02:12.148Z,33.02
2023-05-06T07:03:12.197Z,32.84
2023-05-06T07:04:12.292Z,32.85
2023-05-06T07:05:12.640Z,32.76
2023-05-06T07:06:12.373Z,32.81
2023-05-06T07:07:12.440Z,32.81
2023-05-06T07:08:12.498Z,32.79
2023-05-06T07:09:12.542Z,32.76
2023-05-06T07:10:12.599Z,32.72
2023-05-06T07:11:12.708Z,32.78
2023-05-06T07:12:12.720Z,32.70
2023-05-06T07:13:12.779Z,32.63
2023-05-06T07:14:12.813Z,32.58
2023-05-06T07:15:13.072Z,32.44
2023-05-06T07:16:12.895Z,32.39
2023-05-06T07:17:13.001Z,32.33
2023-05-06T07:18:13.036Z,32.22
2023-05-06T07:19:13.024Z,32.00
2023-05-06T07:20:13.032Z,31.86
2023-05-06T07:21:13.061Z,31.77
2023-05-06T07:22:13.110Z,31.70
2023-05-06T07:23:13.129Z,31.66
2023-05-06T07:24:13.148Z,31.65
2023-05-06T07:25:13.347Z,31.61
2023-05-06T07:26:13.147Z,31.64
2023-05-06T07:27:13.335Z,31.57
2023-05-06T07:28:13.175Z,31.56
2023-05-06T07:29:13.207Z,31.56
2023-05-06T07:30:13.240Z,31.47
2023-05-06T07:31:13.360Z,31.44
2023-05-06T07:32:13.301Z,31.40
2023-05-06T07:33:13.337Z,31.36
2023-05-06T07:34:13.397Z,31.39
2023-05-06T07:35:13.486Z,31.29
2023-05-06T07:36:13.419Z,31.30
2023-05-06T07:37:13.459Z,31.26
2023-05-06T07:38:13.481Z,31.31
2023-05-06T07:39:13.508Z,31.23
2023-05-06T07:40:13.513Z,31.25
2023-05-06T07:41:13.558Z,31.22
2023-05-06T07:42:13.578Z,31.31
2023-05-06T07:43:13.653Z,31.26
2023-05-06T07:44:13.613Z,31.26
2023-05-06T07:45:13.653Z,31.29
2023-05-06T07:46:13.733Z,31.21
2023-05-06T07:47:13.712Z,31.17
2023-05-06T07:48:13.772Z,31.23
2023-05-06T07:49:13.725Z,31.29
2023-05-06T07:50:13.774Z,31.31
2023-05-06T07:51:13.793Z,31.32
2023-05-06T07:52:13.792Z,31.31
2023-05-06T07:53:13.831Z,31.34
2023-05-06T07:54:13.834Z,31.29
2023-05-06T07:55:13.991Z,31.31
2023-05-06T07:56:13.903Z,31.38
2023-05-06T07:57:13.906Z,31.42
2023-05-06T07:58:13.928Z,31.43
2023-05-06T07:59:14.009Z,31.38
2023-05-06T08:00:13.992Z,31.45
2023-05-06T08:01:13.990Z,31.45
2023-05-06T08:02:14.026Z,31.42
2023-05-06T08:03:14.199Z,31.46
2023-05-06T08:04:14.196Z,31.50
2023-05-06T08:05:14.071Z,31.48
2023-05-06T08:06:14.079Z,31.53
2023-05-06T08:07:14.094Z,31.51
2023-05-06T08:08:14.206Z,31.53
2023-05-06T08:09:22.360Z,31.48
2023-05-06T08:10:15.155Z,31.56
2023-05-06T08:11:14.129Z,31.57
2023-05-06T08:12:14.121Z,31.59
2023-05-06T08:13:14.239Z,31.55
2023-05-06T08:14:14.109Z,31.61
2023-05-06T08:15:14.110Z,31.66
2023-05-06T08:16:14.153Z,31.66
2023-05-06T08:17:14.101Z,31.77
2023-05-06T08:18:22.496Z,31.81
2023-05-06T08:19:15.102Z,31.74
2023-05-06T08:20:14.079Z,31.77
2023-05-06T08:21:14.068Z,31.78
2023-05-06T08:22:14.057Z,31.78
2023-05-06T08:23:14.071Z,31.99
2023-05-06T08:24:14.042Z,31.79
2023-05-06T08:25:14.051Z,31.86
2023-05-06T08:26:14.043Z,31.75
2023-05-06T08:27:14.021Z,31.84
2023-05-06T08:28:14.018Z,31.91
2023-05-06T08:29:14.024Z,31.87
2023-05-06T08:30:14.008Z,31.91
2023-05-06T08:31:14.127Z,31.88
2023-05-06T08:32:14.008Z,31.89
2023-05-06T08:33:13.992Z,31.97
2023-05-06T08:34:13.981Z,32.00
2023-05-06T08:35:14.094Z,32.00
2023-05-06T08:36:13.978Z,32.00
2023-05-06T08:37:13.954Z,31.97
2023-05-06T08:38:13.957Z,32.03
2023-05-06T08:39:13.968Z,31.89
2023-05-06T08:40:14.034Z,32.03
2023-05-06T08:41:14.028Z,32.03
2023-05-06T08:42:14.059Z,32.07
2023-05-06T08:43:14.061Z,32.01
2023-05-06T08:44:14.099Z,32.05
2023-05-06T08:45:14.132Z,32.08
2023-05-06T08:46:14.165Z,32.03
2023-05-06T08:47:14.189Z,31.98
2023-05-06T08:48:14.191Z,32.04
2023-05-06T08:49:14.207Z,32.07
2023-05-06T08:50:14.228Z,32.00
2023-05-06T08:51:14.264Z,32.15
2023-05-06T08:52:14.290Z,32.14
2023-05-06T08:53:14.309Z,32.19
2023-05-06T08:54:14.336Z,32.08
2023-05-06T08:55:14.487Z,32.15
2023-05-06T08:56:14.383Z,32.11
2023-05-06T08:57:14.400Z,32.19
2023-05-06T08:58:14.439Z,32.15
2023-05-06T08:59:14.457Z,32.21
2023-05-06T09:00:14.506Z,32.20
2023-05-06T09:01:14.517Z,32.17
2023-05-06T09:02:14.590Z,32.25
2023-05-06T09:03:14.597Z,32.35
2023-05-06T09:04:14.592Z,32.24
2023-05-06T09:05:14.646Z,32.36
2023-05-06T09:06:14.629Z,32.28
2023-05-06T09:07:14.671Z,32.35
2023-05-06T09:08:14.680Z,32.37
2023-05-06T09:09:14.758Z,32.41
2023-05-06T09:10:14.791Z,32.37
2023-05-06T09:11:14.783Z,32.34
2023-05-06T09:12:14.788Z,32.45
2023-05-06T09:13:14.977Z,32.49
2023-05-06T09:14:14.848Z,32.51
2023-05-06T09:15:14.924Z,32.43
2023-05-06T09:16:14.956Z,32.40
2023-05-06T09:17:14.956Z,32.57
2023-05-06T09:18:14.996Z,32.48
2023-05-06T09:19:15.096Z,32.50
2023-05-06T09:20:15.070Z,32.43
2023-05-06T09:21:15.091Z,32.49
2023-05-06T09:22:15.136Z,32.50
2023-05-06T09:23:15.188Z,32.46
2023-05-06T09:24:15.201Z,32.49
2023-05-06T09:25:15.224Z,32.53
2023-05-06T09:26:15.258Z,32.54
2023-05-06T09:27:15.367Z,32.42
2023-05-06T09:28:15.361Z,32.38
2023-05-06T09:29:15.393Z,32.46
2023-05-06T09:30:15.433Z,32.46
2023-05-06T09:31:15.464Z,32.47
2023-05-06T09:32:15.490Z,32.35
2023-05-06T09:33:15.562Z,32.43
2023-05-06T09:34:15.588Z,32.45
2023-05-06T09:35:15.746Z,32.27
2023-05-06T09:36:15.615Z,32.36
2023-05-06T09:37:15.669Z,32.43
2023-05-06T09:38:15.696Z,32.48
2023-05-06T09:39:15.755Z,32.43
2023-05-06T09:40:15.777Z,32.48
2023-05-06T09:41:15.785Z,32.48
2023-05-06T09:42:15.850Z,32.54
2023-05-06T09:43:15.857Z,32.55
2023-05-06T09:44:15.911Z,32.58
2023-05-06T09:45:15.933Z,32.52
2023-05-06T09:46:16.022Z,32.64
2023-05-06T09:47:15.997Z,32.38
2023-05-06T09:48:16.034Z,32.32
2023-05-06T09:49:16.050Z,32.49
2023-05-06T09:50:16.072Z,32.51
2023-05-06T09:51:16.102Z,32.71
2023-05-06T09:52:16.157Z,32.76
2023-05-06T09:53:16.217Z,32.81
2023-05-06T09:54:16.201Z,32.77
2023-05-06T09:55:16.256Z,32.86
2023-05-06T09:56:16.263Z,32.68
2023-05-06T09:57:16.278Z,32.74
2023-05-06T09:58:16.329Z,32.81
2023-05-06T09:59:16.347Z,32.82
2023-05-06T10:00:16.375Z,32.84
2023-05-06T10:01:25.168Z,32.71
2023-05-06T10:02:17.442Z,32.83
2023-05-06T10:03:16.564Z,32.78
2023-05-06T10:04:16.640Z,32.71
2023-05-06T10:05:16.817Z,32.75
2023-05-06T10:06:16.379Z,32.73
2023-05-06T10:07:16.442Z,32.70
2023-05-06T10:08:16.353Z,32.40
2023-05-06T10:09:16.354Z,32.70
2023-05-06T10:10:16.375Z,32.55
2023-05-06T10:11:16.334Z,32.81
2023-05-06T10:12:16.355Z,32.77
2023-05-06T10:13:16.369Z,32.67
2023-05-06T10:14:16.342Z,32.63
2023-05-06T10:15:16.310Z,32.57
2023-05-06T10:16:16.536Z,32.55
2023-05-06T10:17:16.287Z,32.62
2023-05-06T10:18:16.298Z,32.66
2023-05-06T10:19:16.277Z,32.74
2023-05-06T10:20:16.293Z,32.72
2023-05-06T10:21:16.288Z,32.70
2023-05-06T10:22:16.256Z,32.82
2023-05-06T10:23:16.261Z,32.49
2023-05-06T10:24:16.249Z,32.65
2023-05-06T10:25:16.254Z,32.55
2023-05-06T10:26:16.234Z,32.64
2023-05-06T10:27:16.244Z,32.73
2023-05-06T10:28:19.087Z,32.81
2023-05-06T10:29:17.208Z,32.77
2023-05-06T10:30:16.196Z,32.71
2023-05-06T10:31:16.224Z,32.67
2023-05-06T10:32:16.207Z,32.70
2023-05-06T10:33:16.176Z,32.65
2023-05-06T10:34:16.183Z,32.85
2023-05-06T10:35:16.163Z,32.69
2023-05-06T10:36:16.193Z,32.83
2023-05-06T10:37:16.158Z,32.60
2023-05-06T10:38:16.189Z,32.92
2023-05-06T10:39:16.264Z,32.99
2023-05-06T10:40:16.213Z,32.80
2023-05-06T10:41:16.128Z,32.62
2023-05-06T10:42:16.131Z,32.75
2023-05-06T10:43:16.123Z,32.99
2023-05-06T10:44:16.110Z,33.01
2023-05-06T10:45:16.106Z,33.06
2023-05-06T10:46:16.187Z,32.82
2023-05-06T10:47:16.087Z,32.73
2023-05-06T10:48:16.084Z,32.97
2023-05-06T10:49:16.085Z,32.92
2023-05-06T10:50:16.117Z,33.08
2023-05-06T10:51:16.085Z,32.81
2023-05-06T10:52:16.057Z,32.87
2023-05-06T10:53:16.052Z,32.73
2023-05-06T10:54:16.056Z,33.00
2023-05-06T10:55:16.041Z,33.03
2023-05-06T10:56:16.042Z,32.94
2023-05-06T10:57:16.035Z,33.14
2023-05-06T10:58:16.066Z,32.99
2023-05-06T10:59:16.041Z,32.90
2023-05-06T11:00:16.068Z,32.86
2023-05-06T11:01:16.070Z,32.81
2023-05-06T11:02:16.027Z,33.04
2023-05-06T11:03:16.030Z,32.89
2023-05-06T11:04:15.997Z,32.98
2023-05-06T11:05:16.004Z,32.86
2023-05-06T11:06:16.003Z,32.89
2023-05-06T11:07:16.010Z,33.08
2023-05-06T11:08:16.025Z,32.83
2023-05-06T11:09:16.013Z,33.00
2023-05-06T11:10:16.022Z,32.76
2023-05-06T11:11:16.089Z,32.89
2023-05-06T11:12:16.019Z,33.11
2023-05-06T11:13:16.065Z,32.84
2023-05-06T11:14:16.085Z,32.90
2023-05-06T11:15:16.057Z,32.95
2023-05-06T11:16:16.087Z,33.00
2023-05-06T11:17:16.055Z,32.84
2023-05-06T11:18:16.062Z,32.82
2023-05-06T11:19:16.063Z,32.76
2023-05-06T11:20:16.095Z,32.75
2023-05-06T11:21:16.082Z,32.75
2023-05-06T11:22:16.107Z,32.89
2023-05-06T11:23:16.090Z,32.61
2023-05-06T11:24:16.097Z,32.81
2023-05-06T11:25:16.099Z,32.70
2023-05-06T11:26:16.106Z,32.81
2023-05-06T11:27:16.169Z,32.84
2023-05-06T11:28:16.111Z,32.67
2023-05-06T11:29:16.118Z,32.79
2023-05-06T11:30:16.134Z,32.76
2023-05-06T11:31:16.143Z,32.62
2023-05-06T11:32:16.114Z,32.86
2023-05-06T11:33:16.104Z,32.72
2023-05-06T11:34:16.109Z,32.71
2023-05-06T11:35:16.109Z,32.58
2023-05-06T11:36:16.103Z,32.62
2023-05-06T11:37:16.122Z,32.50
2023-05-06T11:38:16.102Z,32.70
2023-05-06T11:39:16.127Z,32.64
2023-05-06T11:40:16.102Z,32.64
2023-05-06T11:41:16.122Z,32.62
2023-05-06T11:42:16.100Z,32.54
2023-05-06T11:43:16.184Z,32.58
2023-05-06T11:44:16.101Z,32.45
2023-05-06T11:45:16.097Z,32.35
2023-05-06T11:46:16.108Z,32.57
2023-05-06T11:47:16.096Z,32.48
2023-05-06T11:48:16.096Z,32.37
2023-05-06T11:49:16.092Z,32.32
2023-05-06T11:50:16.086Z,32.28
2023-05-06T11:51:16.161Z,32.35
2023-05-06T11:52:16.078Z,32.28
2023-05-06T11:53:16.083Z,32.15
2023-05-06T11:54:16.091Z,32.28
2023-05-06T11:55:16.087Z,32.27
2023-05-06T11:56:16.108Z,32.42
2023-05-06T11:57:16.119Z,32.21
2023-05-06T11:58:16.121Z,32.41
2023-05-06T11:59:16.193Z,32.29
2023-05-06T12:00:16.179Z,32.30
2023-05-06T12:01:16.157Z,32.32
2023-05-06T12:02:16.206Z,32.43
2023-05-06T12:03:16.296Z,32.34
2023-05-06T12:04:16.229Z,32.30
2023-05-06T12:05:16.213Z,32.27
2023-05-06T12:06:16.226Z,32.30
2023-05-06T12:07:16.227Z,32.11
2023-05-06T12:08:26.530Z,32.18
2023-05-06T12:09:17.191Z,32.27
2023-05-06T12:10:16.183Z,32.24
2023-05-06T12:11:16.173Z,32.16
2023-05-06T12:12:16.216Z,32.27
2023-05-06T12:13:16.240Z,32.33
2023-05-06T12:14:16.158Z,32.28
2023-05-06T12:15:16.260Z,32.19
2023-05-06T12:16:16.203Z,32.26
2023-05-06T12:17:16.128Z,32.23
2023-05-06T12:18:16.130Z,32.13
2023-05-06T12:19:16.137Z,32.17
2023-05-06T12:20:16.115Z,32.31
2023-05-06T12:21:16.100Z,32.15
2023-05-06T12:22:16.113Z,32.28
2023-05-06T12:23:16.104Z,32.23
2023-05-06T12:24:16.142Z,32.28
2023-05-06T12:25:16.090Z,32.19
2023-05-06T12:26:16.154Z,32.38
2023-05-06T12:27:16.188Z,32.35
2023-05-06T12:28:16.203Z,32.35
2023-05-06T12:29:16.196Z,32.19
2023-05-06T12:30:16.224Z,32.23
2023-05-06T12:31:16.236Z,32.31
2023-05-06T12:32:16.224Z,32.23
2023-05-06T12:33:16.194Z,32.32
2023-05-06T12:34:16.173Z,32.12
2023-05-06T12:35:16.167Z,32.07
2023-05-06T12:36:16.180Z,32.19
2023-05-06T12:37:16.172Z,32.29
2023-05-06T12:38:16.162Z,32.24
2023-05-06T12:39:16.158Z,32.29
2023-05-06T12:40:16.167Z,32.32
2023-05-06T12:41:16.191Z,32.24
2023-05-06T12:42:16.196Z,32.18
2023-05-06T12:43:16.160Z,32.17
2023-05-06T12:44:16.163Z,32.29
2023-05-06T12:45:16.151Z,32.22
2023-05-06T12:46:16.210Z,32.26
2023-05-06T12:47:16.121Z,32.21
2023-05-06T12:48:16.157Z,32.28
2023-05-06T12:49:16.127Z,32.29
2023-05-06T12:50:16.150Z,32.22
2023-05-06T12:51:16.137Z,32.22
2023-05-06T12:52:16.193Z,32.24
2023-05-06T12:53:16.126Z,32.21
2023-05-06T12:54:16.207Z,32.29
2023-05-06T12:55:16.146Z,32.25